Home   Weather   USA   Freehold   Past weeks
Flag for USA

Past Weather in Freehold, New Jersey, USA — July 2019

Currently: 30 °F. Clear. (Weather station: Belmar-Farmdale, USA). See more current weather

July 2019 Weather in Freehold — Graph

°F

High & Low Weather Summary for July 2019

 TemperatureHumidityPressure
High99 °F (Jul 21, 2:56 pm)100% (Jul 5, 3:17 am)30.29 "Hg (Jul 5, 3:17 am)
Low62 °F (Jul 1, 5:56 am)38% (Jul 1, 1:56 pm)29.68 "Hg (Jul 22, 5:56 pm)
Average78 °F76%29.97 "Hg
* Reported Jul 1 12:56 am — Jul 31 11:56 pm, Freehold. Weather by CustomWeather, © 2021

Note: Actual official high and low records may vary slightly from our data, if they occured in-between our weather recording intervals... More about our weather records

Freehold Weather History for July 1, 2019

Scroll right to see more
 ConditionsComfort  
Time TempWeatherWind HumidityBarometerVisibility
12:56 am
Mon, Jul 1
68 °FClear.7 mph63%29.88 "Hg10 mi
1:56 am66 °FClear.7 mph68%29.90 "Hg10 mi
2:56 am65 °FClear.5 mph70%29.90 "Hg10 mi
3:56 am65 °FClear.7 mph70%29.91 "Hg10 mi
4:56 am63 °FClear.7 mph78%29.92 "Hg10 mi
5:56 am62 °FSunny.6 mph80%29.92 "Hg10 mi
6:56 am65 °FSunny.6 mph76%29.93 "Hg10 mi
7:56 am69 °FSunny.7 mph66%29.94 "Hg10 mi
8:56 am72 °FSunny.8 mph61%29.96 "Hg10 mi
9:56 am75 °FSunny.6 mph55%29.96 "Hg10 mi
10:56 am78 °FSunny.No wind48%29.96 "Hg10 mi
11:56 am80 °FSunny.8 mph44%29.95 "Hg10 mi
12:56 pm82 °FSunny.5 mph41%29.95 "Hg10 mi
1:56 pm84 °FSunny.6 mph38%29.94 "Hg10 mi
2:56 pm84 °FSunny.9 mph40%29.92 "Hg10 mi
3:56 pm84 °FSunny.6 mph40%29.93 "Hg10 mi
4:56 pm84 °FSunny.9 mph41%29.92 "Hg10 mi
5:56 pm83 °FSunny.7 mph43%29.91 "Hg8 mi
6:56 pm83 °FSunny.6 mph43%29.90 "Hg10 mi
7:56 pm80 °FSunny.6 mph49%29.90 "Hg10 mi
8:56 pm75 °FClear.7 mph62%29.91 "Hg10 mi
9:56 pm74 °FClear.6 mph71%29.91 "Hg10 mi
10:56 pm72 °FClear.6 mph73%29.92 "Hg10 mi
11:56 pm70 °FClear.5 mph73%29.92 "Hg10 mi
Weather by CustomWeather, © 2021

See weather overview